Corpus Christi, TX

3:59 PM CDT on July 06, 2015 (GMT -0500)
Texas State Aquarium | | Change Station
CLOSE
Current Station
Personal Weather Station
Location: Corpus Christi, TX
Elevation: 36 ft
Nearby Weather Stations

Elev 36 ft 27.81 °N, 97.39 °W | Updated 21 seconds ago

Overcast
Overcast
86.2 °F
Feels Like 104 °F
N
13.5
Wind Variable Wind from NNE
Gusts 16.0 mph

Today
High -- | Low -- °F
--% Chance of Precip.
Yesterday
High -- | Low -- °F
Precip. -- in
6:39 AM 8:29 PM
Waning Gibbous, 72% visible
Pressure 29.99 in
Visibility 10.0 miles
Clouds Few 2600 ft
Scattered Clouds 3400 ft
Scattered Clouds 4200 ft
Overcast 25000 ft
Heat Index 104 °F
Dew Point 82 °F
Humidity 86%
Rainfall 0.00 in
Snow Depth Not available.
UV 0.0 out of 12
Pollen 4.30 out of 12
Air Quality Not available.
Flu Activity Not available.
METAR KCRP 062051Z 14023G27KT 10SM FEW026 SCT034 SCT042 OVC250 32/23 A2999 RMK AO2 PK WND 15027/2050 SLP155 T03220233 58016 $

More Conditions Fewer Conditions

Pressure 29.99 in
Visibility 10.0 miles
Clouds Few 2600 ft
Scattered Clouds 3400 ft
Scattered Clouds 4200 ft
Overcast 25000 ft
Heat Index 104 °F
Dew Point 82 °F
Humidity 86%
Rainfall 0.00 in
Snow Depth Not available.
UV 0.0 out of 12
Pollen 4.30 out of 12
Air Quality Not available.
Flu Activity Not available.
METAR KCRP 062051Z 14023G27KT 10SM FEW026 SCT034 SCT042 OVC250 32/23 A2999 RMK AO2 PK WND 15027/2050 SLP155 T03220233 58016 $

More Conditions Fewer Conditions

10-Day Weather Forecast

×

Almanac

Astronomy

Jul. 06, 2015 Rise Set
Actual Time
Civil Twilight
Nautical Twilight
Astronomical Twilight
Moon
Length of Visible Light
Length of Day
Tomorrow will be .
, % of the Moon is Illuminated

Today's Extremes

State Highs State Lows

Community

WunderPhotos

Upload Photos

1,835,638 photos uploaded!

WunderBlogs® & News

Nearby

Air Quality

  Air Quality AQ Index Pollutant
Not available.

Snow Depth

Station Depth Elevation

Earthquake Activity

City Distance Mag. Time & Date
Minimum magnitude displayed is 2.5.

Coastal Water Temperatures

Place Temperature

Stations

Nearby Weather Stations

Station Location Temp. Windchill Dew Point Humidity Wind Precip. Elev Updated Type